createdAt,value
2018-09-12T00:00:33.786Z,15.60
2018-09-12T00:01:33.775Z,15.50
2018-09-12T00:02:33.760Z,15.59
2018-09-12T00:03:33.749Z,15.53
2018-09-12T00:04:33.772Z,15.51
2018-09-12T00:05:33.727Z,15.51
2018-09-12T00:06:33.715Z,15.53
2018-09-12T00:07:33.704Z,15.51
2018-09-12T00:08:33.692Z,15.51
2018-09-12T00:09:33.704Z,15.59
2018-09-12T00:10:33.693Z,15.47
2018-09-12T00:11:33.680Z,15.49
2018-09-12T00:12:33.653Z,15.46
2018-09-12T00:13:33.639Z,15.49
2018-09-12T00:14:33.626Z,15.54
2018-09-12T00:15:33.616Z,15.53
2018-09-12T00:16:33.630Z,15.43
2018-09-12T00:17:33.595Z,15.50
2018-09-12T00:18:33.582Z,15.41
2018-09-12T00:19:33.592Z,15.39
2018-09-12T00:20:33.584Z,15.44
2018-09-12T00:21:33.553Z,15.44
2018-09-12T00:22:33.537Z,15.47
2018-09-12T00:23:33.543Z,15.36
2018-09-12T00:24:33.515Z,15.38
2018-09-12T00:25:33.527Z,15.43
2018-09-12T00:26:33.494Z,15.36
2018-09-12T00:27:33.483Z,15.31
2018-09-12T00:28:33.472Z,15.32
2018-09-12T00:29:33.460Z,15.31
2018-09-12T00:30:33.464Z,15.35
2018-09-12T00:31:33.438Z,15.35
2018-09-12T00:32:33.427Z,15.36
2018-09-12T00:33:33.425Z,15.34
2018-09-12T00:34:33.407Z,15.34
2018-09-12T00:35:33.419Z,15.32
2018-09-12T00:36:33.386Z,15.34
2018-09-12T00:37:33.376Z,15.34
2018-09-12T00:38:33.361Z,15.31
2018-09-12T00:39:33.351Z,15.36
2018-09-12T00:40:33.372Z,15.29
2018-09-12T00:41:33.329Z,15.21
2018-09-12T00:42:33.317Z,15.28
2018-09-12T00:43:33.307Z,15.20
2018-09-12T00:44:33.310Z,15.35
2018-09-12T00:45:33.313Z,15.25
2018-09-12T00:46:33.273Z,15.25
2018-09-12T00:47:33.261Z,15.27
2018-09-12T00:48:33.252Z,15.25
2018-09-12T00:49:33.245Z,15.27
2018-09-12T00:50:33.254Z,15.35
2018-09-12T00:51:33.217Z,15.35
2018-09-12T00:52:33.213Z,15.32
2018-09-12T00:53:33.222Z,15.34
2018-09-12T00:54:33.189Z,15.28
2018-09-12T00:55:33.173Z,15.36
2018-09-12T00:56:33.162Z,15.28
2018-09-12T00:57:33.154Z,15.34
2018-09-12T00:58:33.194Z,15.29
2018-09-12T00:59:33.132Z,15.25
2018-09-12T01:00:33.117Z,15.36
2018-09-12T01:01:33.106Z,15.27
2018-09-12T01:02:33.096Z,15.28
2018-09-12T01:03:33.104Z,15.31
2018-09-12T01:04:33.073Z,15.19
2018-09-12T01:05:33.064Z,15.27
2018-09-12T01:06:33.055Z,15.17
2018-09-12T01:07:33.060Z,15.21
2018-09-12T01:08:33.028Z,15.21
2018-09-12T01:09:33.017Z,15.23
2018-09-12T01:10:33.042Z,15.17
2018-09-12T01:11:32.995Z,15.23
2018-09-12T01:12:32.984Z,15.20
2018-09-12T01:13:32.978Z,15.20
2018-09-12T01:14:32.963Z,15.17
2018-09-12T01:15:32.976Z,15.14
2018-09-12T01:16:32.943Z,15.11
2018-09-12T01:17:32.950Z,15.17
2018-09-12T01:18:32.919Z,15.10
2018-09-12T01:19:32.910Z,15.13
2018-09-12T01:20:32.895Z,15.16
2018-09-12T01:21:32.910Z,15.17
2018-09-12T01:22:32.896Z,15.10
2018-09-12T01:23:32.866Z,15.10
2018-09-12T01:24:32.851Z,15.13
2018-09-12T01:25:32.840Z,15.13
2018-09-12T01:26:32.855Z,15.07
2018-09-12T01:27:32.818Z,15.10
2018-09-12T01:28:32.808Z,15.09
2018-09-12T01:29:32.796Z,15.07
2018-09-12T01:30:32.784Z,15.06
2018-09-12T01:31:32.798Z,15.10
2018-09-12T01:32:32.770Z,15.09
2018-09-12T01:33:32.751Z,15.10
2018-09-12T01:34:32.739Z,15.03
2018-09-12T01:35:32.728Z,15.02
2018-09-12T01:36:32.752Z,15.02
2018-09-12T01:37:32.710Z,15.03
2018-09-12T01:38:32.695Z,15.07
2018-09-12T01:39:32.684Z,15.11
2018-09-12T01:40:32.674Z,15.07
2018-09-12T01:41:32.689Z,14.96
2018-09-12T01:42:32.679Z,15.07
2018-09-12T01:43:32.639Z,15.01
2018-09-12T01:44:32.633Z,14.98
2018-09-12T01:45:32.641Z,14.88
2018-09-12T01:46:32.616Z,15.02
2018-09-12T01:47:32.622Z,14.99
2018-09-12T01:48:32.584Z,14.91
2018-09-12T01:49:32.572Z,14.94
2018-09-12T01:50:32.561Z,14.95
2018-09-12T01:51:32.575Z,14.99
2018-09-12T01:52:32.540Z,14.99
2018-09-12T01:53:32.528Z,14.95
2018-09-12T01:54:32.520Z,14.99
2018-09-12T01:55:32.515Z,14.96
2018-09-12T01:56:32.531Z,14.96
2018-09-12T01:57:32.483Z,14.94
2018-09-12T01:58:32.477Z,14.95
2018-09-12T01:59:32.464Z,14.86
2018-09-12T02:00:32.451Z,14.88
2018-09-12T02:01:32.468Z,14.91
2018-09-12T02:02:32.432Z,14.95
2018-09-12T02:03:32.419Z,14.84
2018-09-12T02:04:32.406Z,14.86
2018-09-12T02:05:32.420Z,14.96
2018-09-12T02:06:32.384Z,14.86
2018-09-12T02:07:32.398Z,14.88
2018-09-12T02:08:32.366Z,14.81
2018-09-12T02:09:32.352Z,14.78
2018-09-12T02:10:32.340Z,14.83
2018-09-12T02:11:32.331Z,14.78
2018-09-12T02:12:32.342Z,14.73
2018-09-12T02:13:32.306Z,14.80
2018-09-12T02:14:32.295Z,14.83
2018-09-12T02:15:32.285Z,14.75
2018-09-12T02:16:32.274Z,14.81
2018-09-12T02:17:32.286Z,14.75
2018-09-12T02:18:32.275Z,14.80
2018-09-12T02:19:32.255Z,14.81
2018-09-12T02:20:32.228Z,14.89
2018-09-12T02:21:32.248Z,14.81
2018-09-12T02:22:32.210Z,14.77
2018-09-12T02:23:32.213Z,14.80
2018-09-12T02:24:32.184Z,14.80
2018-09-12T02:25:32.177Z,14.84
2018-09-12T02:26:32.162Z,14.73
2018-09-12T02:27:32.151Z,14.75
2018-09-12T02:28:32.166Z,14.81
2018-09-12T02:29:32.128Z,14.84
2018-09-12T02:30:32.117Z,14.70
2018-09-12T02:31:32.106Z,14.77
2018-09-12T02:32:32.099Z,14.72
2018-09-12T02:33:32.115Z,14.72
2018-09-12T02:34:32.072Z,14.77
2018-09-12T02:35:32.090Z,14.77
2018-09-12T02:36:32.077Z,14.64
2018-09-12T02:37:32.040Z,14.70
2018-09-12T02:38:32.029Z,14.69
2018-09-12T02:39:32.046Z,14.73
2018-09-12T02:40:32.005Z,14.72
2018-09-12T02:41:31.995Z,14.62
2018-09-12T02:42:31.983Z,14.73
2018-09-12T02:43:31.975Z,14.62
2018-09-12T02:44:31.990Z,14.64
2018-09-12T02:45:31.974Z,14.61
2018-09-12T02:46:31.938Z,14.62
2018-09-12T02:47:31.928Z,14.62
2018-09-12T02:48:31.918Z,14.65
2018-09-12T02:49:31.907Z,14.60
2018-09-12T02:50:31.936Z,14.62
2018-09-12T02:51:31.882Z,14.61
2018-09-12T02:52:31.872Z,14.57
2018-09-12T02:53:31.864Z,14.52
2018-09-12T02:54:31.849Z,14.62
2018-09-12T02:55:31.872Z,14.54
2018-09-12T02:56:31.826Z,14.46
2018-09-12T02:57:31.816Z,14.52
2018-09-12T02:58:31.812Z,14.54
2018-09-12T02:59:31.795Z,14.50
2018-09-12T03:00:31.811Z,14.52
2018-09-12T03:01:31.796Z,14.54
2018-09-12T03:02:31.761Z,14.52
2018-09-12T03:03:31.752Z,14.43
2018-09-12T03:04:31.765Z,14.47
2018-09-12T03:05:31.727Z,14.43
2018-09-12T03:06:31.744Z,14.43
2018-09-12T03:07:31.708Z,14.46
2018-09-12T03:08:31.698Z,14.45
2018-09-12T03:09:31.683Z,14.43
2018-09-12T03:10:31.675Z,14.43
2018-09-12T03:11:31.685Z,14.43
2018-09-12T03:12:31.650Z,14.43
2018-09-12T03:13:31.668Z,14.32
2018-09-12T03:14:31.630Z,14.45
2018-09-12T03:15:31.622Z,14.37
2018-09-12T03:16:31.606Z,14.33
2018-09-12T03:17:31.597Z,14.29
2018-09-12T03:18:31.610Z,14.37
2018-09-12T03:19:31.576Z,14.40
2018-09-12T03:20:31.657Z,14.46
2018-09-12T03:21:31.577Z,14.35
2018-09-12T03:22:31.539Z,14.42
2018-09-12T03:23:31.552Z,14.32
2018-09-12T03:24:31.516Z,14.32
2018-09-12T03:25:31.505Z,14.35
2018-09-12T03:26:31.493Z,14.27
2018-09-12T03:27:31.507Z,14.28
2018-09-12T03:28:31.499Z,14.25
2018-09-12T03:29:31.459Z,14.27
2018-09-12T03:30:31.459Z,14.36
2018-09-12T03:31:31.439Z,14.32
2018-09-12T03:32:31.427Z,14.35
2018-09-12T03:33:31.458Z,14.37
2018-09-12T03:34:31.403Z,14.43
2018-09-12T03:35:31.396Z,14.32
2018-09-12T03:36:31.382Z,14.37
2018-09-12T03:37:31.375Z,14.29
2018-09-12T03:38:31.385Z,14.35
2018-09-12T03:39:31.353Z,14.35
2018-09-12T03:40:31.341Z,14.27
2018-09-12T03:41:31.330Z,14.35
2018-09-12T03:42:31.339Z,14.40
2018-09-12T03:43:31.304Z,14.42
2018-09-12T03:44:31.319Z,14.28
2018-09-12T03:45:31.285Z,14.27
2018-09-12T03:46:31.280Z,14.27
2018-09-12T03:47:31.263Z,14.22
2018-09-12T03:48:31.253Z,14.29
2018-09-12T03:49:31.265Z,14.29
2018-09-12T03:50:31.227Z,14.32
2018-09-12T03:51:31.215Z,14.43
2018-09-12T03:52:31.203Z,14.40
2018-09-12T03:53:31.193Z,14.43
2018-09-12T03:54:31.205Z,14.43
2018-09-12T03:55:31.170Z,14.51
2018-09-12T03:56:31.184Z,14.47
2018-09-12T03:57:31.150Z,14.52
2018-09-12T03:58:31.161Z,14.47
2018-09-12T03:59:31.127Z,14.52
2018-09-12T04:00:31.114Z,14.39
2018-09-12T04:01:31.103Z,14.40
2018-09-12T04:02:31.097Z,14.43
2018-09-12T04:03:31.106Z,14.40
2018-09-12T04:04:31.074Z,14.43
2018-09-12T04:05:31.092Z,14.46
2018-09-12T04:06:31.047Z,14.45
2018-09-12T04:07:31.036Z,14.40
2018-09-12T04:08:31.025Z,14.39
2018-09-12T04:09:31.015Z,14.33
2018-09-12T04:10:31.029Z,14.33
2018-09-12T04:11:30.991Z,14.33
2018-09-12T04:12:30.990Z,14.27
2018-09-12T04:13:30.971Z,14.29
2018-09-12T04:14:30.959Z,14.27
2018-09-12T04:15:30.971Z,14.24
2018-09-12T04:16:30.940Z,14.33
2018-09-12T04:17:30.925Z,14.27
2018-09-12T04:18:30.914Z,14.27
2018-09-12T04:19:30.904Z,14.14
2018-09-12T04:20:30.919Z,14.12
2018-09-12T04:21:30.906Z,14.15
2018-09-12T04:22:30.870Z,14.22
2018-09-12T04:23:30.863Z,14.15
2018-09-12T04:24:30.876Z,14.17
2018-09-12T04:25:30.838Z,14.10
2018-09-12T04:26:30.858Z,14.15
2018-09-12T04:27:30.814Z,14.14
2018-09-12T04:28:30.803Z,14.12
2018-09-12T04:29:30.798Z,14.09
2018-09-12T04:30:30.782Z,14.14
2018-09-12T04:31:30.795Z,14.02
2018-09-12T04:32:30.758Z,14.00
2018-09-12T04:33:30.747Z,14.00
2018-09-12T04:34:30.761Z,14.06
2018-09-12T04:35:30.728Z,14.04
2018-09-12T04:36:30.721Z,13.97
2018-09-12T04:37:30.703Z,14.12
2018-09-12T04:38:30.696Z,13.97
2018-09-12T04:39:30.710Z,14.06
2018-09-12T04:40:30.669Z,14.02
2018-09-12T04:41:30.686Z,13.99
2018-09-12T04:42:30.652Z,14.04
2018-09-12T04:43:30.638Z,14.10
2018-09-12T04:44:30.625Z,14.10
2018-09-12T04:45:30.613Z,14.02
2018-09-12T04:46:30.645Z,14.02
2018-09-12T04:47:30.596Z,14.12
2018-09-12T04:48:30.644Z,13.96
2018-09-12T04:49:30.574Z,14.02
2018-09-12T04:50:30.558Z,13.92
2018-09-12T04:51:30.588Z,13.96
2018-09-12T04:52:30.535Z,13.97
2018-09-12T04:53:30.526Z,14.03
2018-09-12T04:54:30.824Z,14.02
2018-09-12T04:55:30.502Z,13.99
2018-09-12T04:56:30.496Z,14.02
2018-09-12T04:57:30.482Z,13.99
2018-09-12T04:58:30.470Z,13.97
2018-09-12T04:59:30.823Z,14.00
2018-09-12T05:00:30.446Z,14.00
2018-09-12T05:01:30.435Z,14.03
2018-09-12T05:02:30.424Z,13.99
2018-09-12T05:03:30.413Z,13.99
2018-09-12T05:04:30.427Z,14.03
2018-09-12T05:05:30.392Z,14.04
2018-09-12T05:06:30.380Z,13.99
2018-09-12T05:07:30.373Z,13.99
2018-09-12T05:08:30.395Z,13.89
2018-09-12T05:09:30.349Z,14.02
2018-09-12T05:10:30.336Z,13.96
2018-09-12T05:11:30.326Z,14.00
2018-09-12T05:12:30.315Z,13.96
2018-09-12T05:13:30.326Z,13.91
2018-09-12T05:14:30.290Z,13.92
2018-09-12T05:15:30.284Z,13.96
2018-09-12T05:16:30.311Z,13.92
2018-09-12T05:17:30.283Z,13.92
2018-09-12T05:18:30.245Z,13.91
2018-09-12T05:19:30.235Z,13.97
2018-09-12T05:20:30.225Z,13.89
2018-09-12T05:21:30.228Z,13.92
2018-09-12T05:22:30.226Z,13.91
2018-09-12T05:23:30.194Z,13.82
2018-09-12T05:24:30.182Z,13.92
2018-09-12T05:25:30.169Z,13.85
2018-09-12T05:26:30.188Z,13.85
2018-09-12T05:27:30.144Z,13.81
2018-09-12T05:28:30.143Z,13.81
2018-09-12T05:29:30.126Z,13.85
2018-09-12T05:30:30.112Z,13.92
2018-09-12T05:31:30.125Z,13.91
2018-09-12T05:32:30.095Z,13.89
2018-09-12T05:33:30.083Z,13.89
2018-09-12T05:34:30.069Z,14.04
2018-09-12T05:35:30.058Z,14.02
2018-09-12T05:36:30.174Z,14.02
2018-09-12T05:37:30.036Z,14.04
2018-09-12T05:38:30.030Z,14.12
2018-09-12T05:39:30.016Z,14.10
2018-09-12T05:40:30.005Z,14.09
2018-09-12T05:41:30.023Z,14.15
2018-09-12T05:42:29.979Z,14.12
2018-09-12T05:43:29.970Z,14.18
2018-09-12T05:44:29.957Z,14.09
2018-09-12T05:45:29.948Z,14.17
2018-09-12T05:46:29.998Z,14.15
2018-09-12T05:47:29.952Z,14.21
2018-09-12T05:48:29.912Z,14.18
2018-09-12T05:49:29.904Z,14.15
2018-09-12T05:50:29.889Z,14.20
2018-09-12T05:51:29.914Z,14.18
2018-09-12T05:52:29.871Z,14.09
2018-09-12T05:53:29.856Z,14.20
2018-09-12T05:54:29.844Z,14.22
2018-09-12T05:55:29.852Z,14.12
2018-09-12T05:56:29.850Z,14.15
2018-09-12T05:57:29.814Z,14.17
2018-09-12T05:58:29.832Z,14.24
2018-09-12T05:59:29.789Z,14.17
2018-09-12T06:00:29.778Z,14.15
2018-09-12T06:01:29.774Z,14.27
2018-09-12T06:02:29.793Z,14.27
2018-09-12T06:03:29.745Z,14.28
2018-09-12T06:04:29.733Z,14.32
2018-09-12T06:05:29.726Z,14.35
2018-09-12T06:06:29.833Z,14.37
2018-09-12T06:07:29.743Z,14.37
2018-09-12T06:08:29.693Z,14.45
2018-09-12T06:09:29.678Z,14.54
2018-09-12T06:10:29.667Z,14.51
2018-09-12T06:11:29.655Z,14.46
2018-09-12T06:12:29.693Z,14.52
2018-09-12T06:13:29.633Z,14.69
2018-09-12T06:14:29.621Z,14.62
2018-09-12T06:15:29.614Z,14.72
2018-09-12T06:16:29.603Z,14.86
2018-09-12T06:17:29.613Z,14.94
2018-09-12T06:18:29.578Z,14.91
2018-09-12T06:19:29.567Z,15.02
2018-09-12T06:20:29.580Z,15.02
2018-09-12T06:21:29.544Z,15.06
2018-09-12T06:22:29.533Z,15.07
2018-09-12T06:23:29.527Z,15.25
2018-09-12T06:24:29.511Z,15.27
2018-09-12T06:25:29.537Z,15.32
2018-09-12T06:26:29.488Z,15.41
2018-09-12T06:27:29.477Z,15.36
2018-09-12T06:28:29.474Z,15.43
2018-09-12T06:29:29.480Z,15.53
2018-09-12T06:30:29.444Z,15.65
2018-09-12T06:31:29.436Z,15.75
2018-09-12T06:32:29.421Z,15.75
2018-09-12T06:33:29.410Z,15.76
2018-09-12T06:34:29.428Z,15.86
2018-09-12T06:35:29.388Z,15.83
2018-09-12T06:36:29.382Z,15.96
2018-09-12T06:37:29.370Z,16.00
2018-09-12T06:38:29.434Z,16.05
2018-09-12T06:39:29.368Z,16.11
2018-09-12T06:40:29.341Z,16.21
2018-09-12T06:41:29.401Z,16.31
2018-09-12T06:42:29.315Z,16.27
2018-09-12T06:43:29.302Z,16.34
2018-09-12T06:44:29.287Z,16.46
2018-09-12T06:45:29.280Z,16.50
2018-09-12T06:46:29.296Z,16.57
2018-09-12T06:47:29.256Z,16.61
2018-09-12T06:48:29.248Z,16.76
2018-09-12T06:49:29.237Z,16.91
2018-09-12T06:50:29.222Z,16.96
2018-09-12T06:51:29.244Z,17.00
2018-09-12T06:52:29.202Z,17.19
2018-09-12T06:53:29.188Z,17.26
2018-09-12T06:54:29.193Z,17.41
2018-09-12T06:55:29.167Z,17.49
2018-09-12T06:56:29.187Z,17.66
2018-09-12T06:57:29.145Z,17.81
2018-09-12T06:58:29.141Z,17.92
2018-09-12T06:59:29.123Z,18.14
2018-09-12T07:00:29.130Z,18.21
2018-09-12T07:01:29.126Z,18.25
2018-09-12T07:02:29.118Z,18.44
2018-09-12T07:03:29.077Z,18.57
2018-09-12T07:04:29.067Z,18.66
2018-09-12T07:05:29.057Z,18.82
2018-09-12T07:06:29.045Z,19.06
2018-09-12T07:07:29.081Z,19.23
2018-09-12T07:08:29.052Z,19.46
2018-09-12T07:09:29.014Z,19.69
2018-09-12T07:10:29.001Z,19.83
2018-09-12T07:11:28.992Z,20.05
2018-09-12T07:12:29.002Z,20.17
2018-09-12T07:13:28.966Z,20.35
2018-09-12T07:14:28.956Z,20.51
2018-09-12T07:15:28.969Z,20.73
2018-09-12T07:16:28.934Z,20.77
2018-09-12T07:17:28.921Z,20.89
2018-09-12T07:18:28.938Z,21.06
2018-09-12T07:19:28.925Z,21.09
2018-09-12T07:20:28.890Z,21.17
2018-09-12T07:21:28.880Z,21.38
2018-09-12T07:22:28.868Z,21.49
2018-09-12T07:23:28.856Z,21.65
2018-09-12T07:24:28.974Z,21.77
2018-09-12T07:25:28.836Z,21.82
2018-09-12T07:26:28.823Z,21.90
2018-09-12T07:27:28.846Z,21.99
2018-09-12T07:28:28.805Z,22.09
2018-09-12T07:29:28.816Z,22.21
2018-09-12T07:30:28.816Z,22.24
2018-09-12T07:31:28.781Z,22.30
2018-09-12T07:32:28.782Z,22.20
2018-09-12T07:33:28.747Z,22.25
2018-09-12T07:34:28.736Z,22.35
2018-09-12T07:35:28.727Z,22.47
2018-09-12T07:36:28.713Z,22.42
2018-09-12T07:37:28.730Z,22.46
2018-09-12T07:38:28.691Z,22.43
2018-09-12T07:39:28.679Z,22.49
2018-09-12T07:40:28.693Z,22.45
2018-09-12T07:41:28.706Z,22.58
2018-09-12T07:42:28.671Z,22.57
2018-09-12T07:43:28.636Z,22.60
2018-09-12T07:44:28.628Z,22.52
2018-09-12T07:45:28.618Z,22.45
2018-09-12T07:46:28.604Z,22.45
2018-09-12T07:47:28.619Z,22.49
2018-09-12T07:48:28.581Z,22.42
2018-09-12T07:49:28.577Z,22.49
2018-09-12T07:50:28.561Z,22.42
2018-09-12T07:51:28.555Z,22.49
2018-09-12T07:52:28.564Z,22.67
2018-09-12T07:53:28.526Z,22.79
2018-09-12T07:54:28.517Z,22.67
2018-09-12T07:55:28.539Z,22.72
2018-09-12T07:56:28.605Z,22.79
2018-09-12T07:57:28.485Z,22.86
2018-09-12T07:58:28.479Z,22.86
2018-09-12T07:59:28.474Z,23.00
2018-09-12T08:00:28.540Z,23.10
2018-09-12T08:01:28.443Z,23.16
2018-09-12T08:02:28.437Z,23.23
2018-09-12T08:03:28.421Z,23.31
2018-09-12T08:04:28.437Z,23.38
2018-09-12T08:05:28.403Z,23.40
2018-09-12T08:06:28.394Z,23.46
2018-09-12T08:07:28.407Z,23.40
2018-09-12T08:08:28.367Z,23.48
2018-09-12T08:09:28.356Z,23.58
2018-09-12T08:10:28.349Z,23.65
2018-09-12T08:11:28.338Z,23.75
2018-09-12T08:12:28.346Z,23.66
2018-09-12T08:13:28.337Z,23.72
2018-09-12T08:14:28.302Z,23.76
2018-09-12T08:15:28.289Z,23.90
2018-09-12T08:16:28.279Z,24.08
2018-09-12T08:17:28.269Z,24.20
2018-09-12T08:18:28.281Z,24.32
2018-09-12T08:19:28.244Z,24.40
2018-09-12T08:20:28.233Z,24.46
2018-09-12T08:21:28.225Z,24.55
2018-09-12T08:22:28.228Z,24.64
2018-09-12T08:23:28.200Z,24.73
2018-09-12T08:24:28.190Z,24.78
2018-09-12T08:25:28.182Z,24.91
2018-09-12T08:26:28.193Z,25.02
2018-09-12T08:27:28.157Z,25.21
2018-09-12T08:28:28.146Z,25.25
2018-09-12T08:29:28.135Z,25.27
2018-09-12T08:30:28.149Z,25.35
2018-09-12T08:31:28.125Z,25.60
2018-09-12T08:32:28.103Z,25.51
2018-09-12T08:33:28.092Z,25.72
2018-09-12T08:34:28.081Z,25.75
2018-09-12T08:35:28.098Z,25.76
2018-09-12T08:36:28.185Z,25.94
2018-09-12T08:37:28.049Z,26.06
2018-09-12T08:38:28.038Z,25.99
2018-09-12T08:39:28.028Z,26.13
2018-09-12T08:40:28.020Z,26.26
2018-09-12T08:41:28.032Z,26.21
2018-09-12T08:42:28.003Z,26.33
2018-09-12T08:43:27.988Z,26.21
2018-09-12T08:44:27.977Z,26.26
2018-09-12T08:45:27.966Z,26.37
2018-09-12T08:46:27.984Z,26.43
2018-09-12T08:47:27.944Z,26.45
2018-09-12T08:48:27.933Z,26.57
2018-09-12T08:49:27.919Z,26.58
2018-09-12T08:50:27.909Z,26.58
2018-09-12T08:51:27.922Z,26.70
2018-09-12T08:52:27.892Z,26.69
2018-09-12T08:53:27.879Z,26.88
2018-09-12T08:54:27.865Z,26.92
2018-09-12T08:55:27.856Z,27.07
2018-09-12T08:56:27.868Z,27.04
2018-09-12T08:57:27.836Z,27.10
2018-09-12T08:58:27.823Z,26.75
2018-09-12T08:59:27.811Z,26.77
2018-09-12T09:00:27.921Z,26.84
2018-09-12T09:01:27.804Z,26.94
2018-09-12T09:02:27.821Z,27.02
2018-09-12T09:03:27.769Z,27.12
2018-09-12T09:04:27.758Z,27.19
2018-09-12T09:05:27.748Z,27.31
2018-09-12T09:06:27.737Z,27.27
2018-09-12T09:07:27.752Z,27.40
2018-09-12T09:08:27.714Z,27.28
2018-09-12T09:09:27.707Z,27.39
2018-09-12T09:10:27.742Z,27.36
2018-09-12T09:11:27.684Z,27.46
2018-09-12T09:12:27.697Z,27.49
2018-09-12T09:13:27.662Z,27.65
2018-09-12T09:14:27.676Z,27.72
2018-09-12T09:15:27.640Z,27.72
2018-09-12T09:16:27.632Z,27.81
2018-09-12T09:17:27.712Z,27.84
2018-09-12T09:18:27.607Z,27.87
2018-09-12T09:19:27.597Z,27.94
2018-09-12T09:20:27.585Z,27.94
2018-09-12T09:21:27.577Z,27.97
2018-09-12T09:22:27.609Z,28.02
2018-09-12T09:23:27.553Z,27.97
2018-09-12T09:24:27.543Z,27.96
2018-09-12T09:25:27.537Z,27.99
2018-09-12T09:26:27.525Z,27.97
2018-09-12T09:27:27.535Z,27.90
2018-09-12T09:28:27.527Z,27.93
2018-09-12T09:29:27.569Z,28.02
2018-09-12T09:30:27.483Z,28.07
2018-09-12T09:31:27.469Z,28.07
2018-09-12T09:32:27.458Z,28.14
2018-09-12T09:33:27.451Z,28.24
2018-09-12T09:34:27.483Z,28.27
2018-09-12T09:35:27.530Z,28.27
2018-09-12T09:36:27.420Z,28.15
2018-09-12T09:37:27.408Z,28.02
2018-09-12T09:38:27.398Z,28.03
2018-09-12T09:39:27.411Z,27.97
2018-09-12T09:40:27.373Z,28.02
2018-09-12T09:41:27.367Z,28.12
2018-09-12T09:42:27.353Z,28.21
2018-09-12T09:43:27.366Z,28.25
2018-09-12T09:44:27.332Z,28.31
2018-09-12T09:45:27.357Z,28.41
2018-09-12T09:46:27.310Z,28.37
2018-09-12T09:47:27.300Z,28.51
2018-09-12T09:48:27.402Z,28.19
2018-09-12T09:49:27.278Z,28.15
2018-09-12T09:50:27.292Z,28.24
2018-09-12T09:51:27.258Z,28.31
2018-09-12T09:52:27.247Z,28.52
2018-09-12T09:53:27.237Z,28.56
2018-09-12T09:54:27.231Z,28.61
2018-09-12T09:55:27.251Z,28.66
2018-09-12T09:56:27.213Z,28.62
2018-09-12T09:57:27.198Z,28.62
2018-09-12T09:58:27.184Z,28.66
2018-09-12T09:59:27.173Z,28.71
2018-09-12T10:00:27.257Z,28.89
2018-09-12T10:01:27.155Z,28.96
2018-09-12T10:02:27.140Z,29.14
2018-09-12T10:03:27.165Z,29.26
2018-09-12T10:04:27.120Z,29.14
2018-09-12T10:05:27.158Z,29.09
2018-09-12T10:06:27.098Z,29.05
2018-09-12T10:07:27.091Z,29.04
2018-09-12T10:08:27.077Z,28.93
2018-09-12T10:09:27.070Z,28.68
2018-09-12T10:10:27.084Z,28.64
2018-09-12T10:11:27.048Z,28.68
2018-09-12T10:12:27.062Z,28.71
2018-09-12T10:13:27.029Z,28.56
2018-09-12T10:14:27.013Z,28.37
2018-09-12T10:15:27.001Z,27.88
2018-09-12T10:16:27.025Z,27.27
2018-09-12T10:17:26.980Z,27.13
2018-09-12T10:18:26.970Z,27.19
2018-09-12T10:19:26.959Z,27.40
2018-09-12T10:20:26.978Z,27.54
2018-09-12T10:21:26.938Z,27.78
2018-09-12T10:22:26.954Z,27.96
2018-09-12T10:23:26.920Z,27.85
2018-09-12T10:24:26.960Z,27.46
2018-09-12T10:25:26.900Z,26.97
2018-09-12T10:26:26.890Z,27.19
2018-09-12T10:27:26.898Z,27.44
2018-09-12T10:28:26.864Z,27.74
2018-09-12T10:29:26.858Z,27.88
2018-09-12T10:30:26.844Z,27.85
2018-09-12T10:31:26.833Z,27.65
2018-09-12T10:32:26.847Z,27.66
2018-09-12T10:33:26.811Z,27.39
2018-09-12T10:34:26.801Z,27.21
2018-09-12T10:35:26.790Z,27.62
2018-09-12T10:36:26.782Z,27.60
2018-09-12T10:37:26.800Z,27.84
2018-09-12T10:38:26.758Z,28.03
2018-09-12T10:39:26.747Z,28.12
2018-09-12T10:40:26.737Z,27.66
2018-09-12T10:41:26.725Z,27.36
2018-09-12T10:42:26.743Z,27.67
2018-09-12T10:43:26.704Z,27.79
2018-09-12T10:44:26.695Z,27.87
2018-09-12T10:45:26.684Z,27.90
2018-09-12T10:46:26.697Z,27.93
2018-09-12T10:47:26.663Z,28.15
2018-09-12T10:48:26.677Z,28.51
2018-09-12T10:49:26.641Z,28.18
2018-09-12T10:50:26.636Z,28.34
2018-09-12T10:51:26.621Z,28.46
2018-09-12T10:52:26.639Z,28.31
2018-09-12T10:53:26.639Z,28.33
2018-09-12T10:54:26.593Z,28.40
2018-09-12T10:55:26.582Z,28.49
2018-09-12T10:56:26.574Z,28.59
2018-09-12T10:57:26.598Z,28.46
2018-09-12T10:58:26.547Z,28.41
2018-09-12T10:59:26.536Z,28.27
2018-09-12T11:00:26.525Z,28.39
2018-09-12T11:01:26.514Z,28.67
2018-09-12T11:02:26.528Z,28.66
2018-09-12T11:03:26.497Z,28.48
2018-09-12T11:04:26.582Z,28.62
2018-09-12T11:05:26.476Z,28.77
2018-09-12T11:06:26.493Z,28.74
2018-09-12T11:07:26.454Z,28.88
2018-09-12T11:08:26.443Z,29.04
2018-09-12T11:09:26.433Z,28.95
2018-09-12T11:10:26.419Z,29.12
2018-09-12T11:11:26.433Z,28.98
2018-09-12T11:12:26.427Z,28.89
2018-09-12T11:13:26.415Z,28.85
2018-09-12T11:14:26.378Z,28.95
2018-09-12T11:15:26.371Z,28.98
2018-09-12T11:16:26.356Z,28.95
2018-09-12T11:17:26.369Z,28.77
2018-09-12T11:18:26.338Z,28.73
2018-09-12T11:19:26.349Z,28.68
2018-09-12T11:20:26.338Z,28.70
2018-09-12T11:21:26.302Z,28.86
2018-09-12T11:22:26.290Z,28.80
2018-09-12T11:23:26.281Z,28.92
2018-09-12T11:24:26.269Z,28.92
2018-09-12T11:25:26.280Z,28.64
2018-09-12T11:26:26.252Z,28.54
2018-09-12T11:27:26.237Z,28.33
2018-09-12T11:28:26.252Z,28.21
2018-09-12T11:29:26.216Z,28.33
2018-09-12T11:30:26.206Z,28.40
2018-09-12T11:31:26.194Z,28.24
2018-09-12T11:32:26.186Z,28.41
2018-09-12T11:33:26.202Z,28.66
2018-09-12T11:34:26.167Z,28.73
2018-09-12T11:35:26.157Z,28.95
2018-09-12T11:36:26.142Z,28.93
2018-09-12T11:37:26.137Z,29.16
2018-09-12T11:38:26.146Z,29.31
2018-09-12T11:39:26.110Z,29.19
2018-09-12T11:40:26.099Z,29.24
2018-09-12T11:41:26.090Z,29.24
2018-09-12T11:42:26.078Z,29.28
2018-09-12T11:43:26.089Z,29.34
2018-09-12T11:44:26.056Z,29.28
2018-09-12T11:45:26.046Z,29.00
2018-09-12T11:46:26.037Z,28.66
2018-09-12T11:47:26.025Z,28.61
2018-09-12T11:48:26.065Z,28.34
2018-09-12T11:49:26.003Z,28.30
2018-09-12T11:50:25.992Z,28.22
2018-09-12T11:51:25.983Z,28.30
2018-09-12T11:52:25.972Z,28.41
2018-09-12T11:53:25.987Z,28.59
2018-09-12T11:54:25.950Z,28.56
2018-09-12T11:55:25.991Z,28.52
2018-09-12T11:56:25.932Z,28.24
2018-09-12T11:57:25.943Z,28.00
2018-09-12T11:58:25.931Z,27.82
2018-09-12T11:59:25.897Z,27.62
2018-09-12T12:00:25.887Z,27.50
2018-09-12T12:01:25.895Z,27.57
2018-09-12T12:02:25.869Z,27.49
2018-09-12T12:03:25.862Z,27.60
2018-09-12T12:04:25.848Z,27.55
2018-09-12T12:05:25.860Z,27.49
2018-09-12T12:06:25.825Z,27.69
2018-09-12T12:07:25.813Z,27.88
2018-09-12T12:08:25.802Z,28.15
2018-09-12T12:09:25.807Z,28.07
2018-09-12T12:10:25.808Z,28.00
2018-09-12T12:11:25.769Z,28.06
2018-09-12T12:12:25.760Z,28.34
2018-09-12T12:13:25.773Z,28.51
2018-09-12T12:14:25.738Z,28.70
2018-09-12T12:15:25.896Z,28.86
2018-09-12T12:16:25.737Z,28.93
2018-09-12T12:17:25.706Z,28.98
2018-09-12T12:18:25.699Z,29.05
2018-09-12T12:19:25.689Z,29.08
2018-09-12T12:20:25.700Z,28.93
2018-09-12T12:21:25.664Z,29.02
2018-09-12T12:22:25.656Z,29.04
2018-09-12T12:23:25.647Z,29.09
2018-09-12T12:24:25.632Z,29.12
2018-09-12T12:25:25.645Z,29.23
2018-09-12T12:26:25.635Z,29.06
2018-09-12T12:27:25.603Z,28.95
2018-09-12T12:28:25.592Z,28.55
2018-09-12T12:29:25.580Z,28.59
2018-09-12T12:30:25.598Z,28.52
2018-09-12T12:31:25.575Z,28.61
2018-09-12T12:32:25.547Z,28.59
2018-09-12T12:33:25.536Z,28.54
2018-09-12T12:34:25.538Z,28.54
2018-09-12T12:35:25.560Z,28.64
2018-09-12T12:36:25.535Z,28.61
2018-09-12T12:37:25.494Z,28.66
2018-09-12T12:38:25.482Z,28.67
2018-09-12T12:39:25.472Z,28.64
2018-09-12T12:40:25.465Z,28.59
2018-09-12T12:41:25.577Z,28.58
2018-09-12T12:42:25.469Z,28.70
2018-09-12T12:43:25.465Z,28.96
2018-09-12T12:44:25.419Z,28.85
2018-09-12T12:45:25.413Z,28.89
2018-09-12T12:46:25.397Z,28.96
2018-09-12T12:47:25.388Z,28.93
2018-09-12T12:48:25.406Z,28.96
2018-09-12T12:49:25.367Z,28.88
2018-09-12T12:50:25.355Z,28.85
2018-09-12T12:51:25.369Z,28.88
2018-09-12T12:52:25.335Z,28.98